Terminal Aerodrome Forecast
Issued by NWS

Current Version | Previous Version | Text Only | Print | Product List | Glossary On
Versions: 1 2 3 4 5 6 7 8 9 10 11 12 13 14 15 16 17 18 19 20 21
000
FTUS44 KBMX 190500
TAFANB
TAF
KANB 190529Z 1906/2006 00000KT 4SM BR SCT035 SCT100
     FM191400 02005KT P6SM SCT035 BKN150
     FM200100 36005KT P6SM VCSH SCT035 OVC050
     FM200300 36005KT 4SM RA BKN035 OVC050=

USA.gov is the U.S. government's official web portal to all federal, state and local government web resources and services.